sensor_id;sensor_type;location;lat;lon;timestamp;P1;durP1;ratioP1;P2;durP2;ratioP2
21731;SDS011;11028;51.156;17.130;2022-08-19T00:04:05;14.05;;;9.80;;
21731;SDS011;11028;51.156;17.130;2022-08-19T00:11:25;14.37;;;9.73;;
21731;SDS011;11028;51.156;17.130;2022-08-19T00:18:42;14.80;;;10.55;;
21731;SDS011;11028;51.156;17.130;2022-08-19T00:26:01;22.38;;;13.27;;
21731;SDS011;11028;51.156;17.130;2022-08-19T00:33:18;14.35;;;10.75;;
21731;SDS011;11028;51.156;17.130;2022-08-19T00:40:35;13.38;;;9.77;;
21731;SDS011;11028;51.156;17.130;2022-08-19T00:47:53;14.25;;;9.88;;
21731;SDS011;11028;51.156;17.130;2022-08-19T00:55:11;12.13;;;10.13;;
21731;SDS011;11028;51.156;17.130;2022-08-19T01:02:31;16.27;;;10.88;;
21731;SDS011;11028;51.156;17.130;2022-08-19T01:09:50;15.43;;;10.65;;
21731;SDS011;11028;51.156;17.130;2022-08-19T01:17:09;15.45;;;10.55;;
21731;SDS011;11028;51.156;17.130;2022-08-19T01:24:27;12.75;;;9.55;;
21731;SDS011;11028;51.156;17.130;2022-08-19T01:31:46;14.02;;;9.82;;
21731;SDS011;11028;51.156;17.130;2022-08-19T01:39:11;11.45;;;9.38;;
21731;SDS011;11028;51.156;17.130;2022-08-19T01:46:33;15.18;;;9.38;;
21731;SDS011;11028;51.156;17.130;2022-08-19T01:53:50;10.60;;;9.23;;
21731;SDS011;11028;51.156;17.130;2022-08-19T02:01:07;13.90;;;9.38;;
21731;SDS011;11028;51.156;17.130;2022-08-19T02:08:26;11.18;;;9.63;;
21731;SDS011;11028;51.156;17.130;2022-08-19T02:15:43;14.00;;;10.57;;
21731;SDS011;11028;51.156;17.130;2022-08-19T02:23:00;11.60;;;9.50;;
21731;SDS011;11028;51.156;17.130;2022-08-19T02:30:18;14.60;;;10.68;;
21731;SDS011;11028;51.156;17.130;2022-08-19T02:37:35;12.88;;;10.48;;
21731;SDS011;11028;51.156;17.130;2022-08-19T02:45:09;15.82;;;9.50;;
21731;SDS011;11028;51.156;17.130;2022-08-19T02:52:30;12.95;;;9.82;;
21731;SDS011;11028;51.156;17.130;2022-08-19T02:59:47;12.18;;;9.80;;
21731;SDS011;11028;51.156;17.130;2022-08-19T03:07:05;19.35;;;11.10;;
21731;SDS011;11028;51.156;17.130;2022-08-19T03:14:24;13.32;;;10.30;;
21731;SDS011;11028;51.156;17.130;2022-08-19T03:21:49;13.90;;;10.50;;
21731;SDS011;11028;51.156;17.130;2022-08-19T03:29:07;17.00;;;10.63;;
21731;SDS011;11028;51.156;17.130;2022-08-19T03:36:27;16.58;;;11.60;;
21731;SDS011;11028;51.156;17.130;2022-08-19T03:43:45;16.25;;;11.68;;
21731;SDS011;11028;51.156;17.130;2022-08-19T03:51:03;17.90;;;11.45;;
21731;SDS011;11028;51.156;17.130;2022-08-19T03:58:22;15.55;;;11.45;;
21731;SDS011;11028;51.156;17.130;2022-08-19T04:05:39;18.73;;;11.85;;
21731;SDS011;11028;51.156;17.130;2022-08-19T04:12:58;17.55;;;12.45;;
21731;SDS011;11028;51.156;17.130;2022-08-19T04:20:17;21.23;;;12.40;;
21731;SDS011;11028;51.156;17.130;2022-08-19T04:27:34;14.93;;;11.50;;
21731;SDS011;11028;51.156;17.130;2022-08-19T04:34:51;18.50;;;13.35;;
21731;SDS011;11028;51.156;17.130;2022-08-19T04:42:13;18.95;;;13.68;;
21731;SDS011;11028;51.156;17.130;2022-08-19T04:49:47;19.00;;;13.80;;
21731;SDS011;11028;51.156;17.130;2022-08-19T04:57:04;21.17;;;14.18;;
21731;SDS011;11028;51.156;17.130;2022-08-19T05:04:25;22.27;;;14.55;;
21731;SDS011;11028;51.156;17.130;2022-08-19T05:11:45;24.20;;;16.33;;
21731;SDS011;11028;51.156;17.130;2022-08-19T05:19:04;23.55;;;15.00;;
21731;SDS011;11028;51.156;17.130;2022-08-19T05:26:41;20.88;;;15.27;;
21731;SDS011;11028;51.156;17.130;2022-08-19T05:34:01;26.00;;;16.15;;
21731;SDS011;11028;51.156;17.130;2022-08-19T05:41:19;25.23;;;14.65;;
21731;SDS011;11028;51.156;17.130;2022-08-19T05:48:46;19.45;;;14.82;;
21731;SDS011;11028;51.156;17.130;2022-08-19T05:56:04;22.83;;;16.00;;
21731;SDS011;11028;51.156;17.130;2022-08-19T06:03:22;21.65;;;15.48;;
21731;SDS011;11028;51.156;17.130;2022-08-19T06:10:41;21.48;;;15.25;;
21731;SDS011;11028;51.156;17.130;2022-08-19T06:17:58;22.70;;;15.68;;
21731;SDS011;11028;51.156;17.130;2022-08-19T06:25:16;28.40;;;16.50;;
21731;SDS011;11028;51.156;17.130;2022-08-19T06:32:34;23.63;;;15.18;;
21731;SDS011;11028;51.156;17.130;2022-08-19T06:39:52;26.83;;;15.73;;
21731;SDS011;11028;51.156;17.130;2022-08-19T06:47:09;24.60;;;15.38;;
21731;SDS011;11028;51.156;17.130;2022-08-19T06:54:30;22.08;;;14.82;;
21731;SDS011;11028;51.156;17.130;2022-08-19T07:01:48;19.48;;;13.90;;
21731;SDS011;11028;51.156;17.130;2022-08-19T07:09:07;25.92;;;14.18;;
21731;SDS011;11028;51.156;17.130;2022-08-19T07:16:27;20.55;;;14.30;;
21731;SDS011;11028;51.156;17.130;2022-08-19T07:23:45;18.67;;;13.07;;
21731;SDS011;11028;51.156;17.130;2022-08-19T07:31:02;20.73;;;12.10;;
21731;SDS011;11028;51.156;17.130;2022-08-19T07:38:21;18.33;;;11.85;;
21731;SDS011;11028;51.156;17.130;2022-08-19T07:45:37;17.15;;;11.65;;
21731;SDS011;11028;51.156;17.130;2022-08-19T07:52:54;17.02;;;11.63;;
21731;SDS011;11028;51.156;17.130;2022-08-19T08:00:14;14.60;;;11.00;;
21731;SDS011;11028;51.156;17.130;2022-08-19T08:07:32;15.40;;;11.00;;
21731;SDS011;11028;51.156;17.130;2022-08-19T08:15:07;17.58;;;10.73;;
21731;SDS011;11028;51.156;17.130;2022-08-19T08:22:27;18.20;;;10.63;;
21731;SDS011;11028;51.156;17.130;2022-08-19T08:30:02;20.42;;;10.88;;
21731;SDS011;11028;51.156;17.130;2022-08-19T08:37:24;13.77;;;10.82;;
21731;SDS011;11028;51.156;17.130;2022-08-19T08:44:43;18.25;;;10.05;;
21731;SDS011;11028;51.156;17.130;2022-08-19T08:52:06;22.63;;;11.07;;
21731;SDS011;11028;51.156;17.130;2022-08-19T08:59:28;13.77;;;10.40;;
21731;SDS011;11028;51.156;17.130;2022-08-19T09:06:50;19.00;;;10.67;;
21731;SDS011;11028;51.156;17.130;2022-08-19T09:14:32;17.60;;;9.65;;
21731;SDS011;11028;51.156;17.130;2022-08-19T09:21:54;18.05;;;9.57;;
21731;SDS011;11028;51.156;17.130;2022-08-19T09:29:11;18.85;;;9.90;;
21731;SDS011;11028;51.156;17.130;2022-08-19T09:36:27;13.63;;;9.45;;
21731;SDS011;11028;51.156;17.130;2022-08-19T09:43:53;18.45;;;9.73;;
21731;SDS011;11028;51.156;17.130;2022-08-19T09:51:12;16.80;;;9.23;;
21731;SDS011;11028;51.156;17.130;2022-08-19T09:58:30;15.55;;;9.88;;
21731;SDS011;11028;51.156;17.130;2022-08-19T10:05:49;14.57;;;9.25;;
21731;SDS011;11028;51.156;17.130;2022-08-19T10:13:06;10.45;;;8.40;;
21731;SDS011;11028;51.156;17.130;2022-08-19T10:20:23;12.55;;;8.23;;
21731;SDS011;11028;51.156;17.130;2022-08-19T10:27:42;11.45;;;8.60;;
21731;SDS011;11028;51.156;17.130;2022-08-19T10:34:59;10.00;;;7.35;;
21731;SDS011;11028;51.156;17.130;2022-08-19T10:42:16;10.98;;;7.00;;
21731;SDS011;11028;51.156;17.130;2022-08-19T10:49:35;8.80;;;6.30;;
21731;SDS011;11028;51.156;17.130;2022-08-19T10:57:13;9.73;;;6.13;;
21731;SDS011;11028;51.156;17.130;2022-08-19T11:04:30;7.00;;;6.22;;
21731;SDS011;11028;51.156;17.130;2022-08-19T11:11:50;17.73;;;6.72;;
21731;SDS011;11028;51.156;17.130;2022-08-19T11:19:09;9.50;;;5.85;;
21731;SDS011;11028;51.156;17.130;2022-08-19T11:26:28;10.15;;;5.90;;
21731;SDS011;11028;51.156;17.130;2022-08-19T11:33:47;10.73;;;5.45;;
21731;SDS011;11028;51.156;17.130;2022-08-19T11:41:07;8.68;;;5.82;;
21731;SDS011;11028;51.156;17.130;2022-08-19T11:48:25;9.55;;;6.00;;
21731;SDS011;11028;51.156;17.130;2022-08-19T11:55:47;10.33;;;6.37;;
21731;SDS011;11028;51.156;17.130;2022-08-19T12:03:04;8.65;;;5.55;;
21731;SDS011;11028;51.156;17.130;2022-08-19T12:10:21;10.90;;;5.43;;
21731;SDS011;11028;51.156;17.130;2022-08-19T12:17:39;13.18;;;5.63;;
21731;SDS011;11028;51.156;17.130;2022-08-19T12:24:59;6.97;;;4.20;;
21731;SDS011;11028;51.156;17.130;2022-08-19T12:32:15;13.55;;;4.03;;
21731;SDS011;11028;51.156;17.130;2022-08-19T12:39:38;7.03;;;3.05;;
21731;SDS011;11028;51.156;17.130;2022-08-19T12:46:56;4.95;;;2.97;;
21731;SDS011;11028;51.156;17.130;2022-08-19T12:54:14;8.30;;;3.63;;
21731;SDS011;11028;51.156;17.130;2022-08-19T13:01:32;14.90;;;4.80;;
21731;SDS011;11028;51.156;17.130;2022-08-19T13:08:49;12.60;;;4.95;;
21731;SDS011;11028;51.156;17.130;2022-08-19T13:16:08;22.40;;;6.88;;
21731;SDS011;11028;51.156;17.130;2022-08-19T13:23:27;8.70;;;4.70;;
21731;SDS011;11028;51.156;17.130;2022-08-19T13:30:46;7.13;;;3.78;;
21731;SDS011;11028;51.156;17.130;2022-08-19T13:38:20;13.38;;;4.47;;
21731;SDS011;11028;51.156;17.130;2022-08-19T13:45:39;5.95;;;3.90;;
21731;SDS011;11028;51.156;17.130;2022-08-19T13:52:57;8.25;;;3.92;;
21731;SDS011;11028;51.156;17.130;2022-08-19T14:00:15;6.75;;;3.53;;
21731;SDS011;11028;51.156;17.130;2022-08-19T14:07:35;10.93;;;4.10;;
21731;SDS011;11028;51.156;17.130;2022-08-19T14:14:52;8.73;;;4.13;;
21731;SDS011;11028;51.156;17.130;2022-08-19T14:22:09;10.57;;;4.03;;
21731;SDS011;11028;51.156;17.130;2022-08-19T14:29:28;7.45;;;4.13;;
21731;SDS011;11028;51.156;17.130;2022-08-19T14:36:46;12.15;;;4.40;;
21731;SDS011;11028;51.156;17.130;2022-08-19T14:44:03;11.05;;;4.07;;
21731;SDS011;11028;51.156;17.130;2022-08-19T14:51:24;14.90;;;4.47;;
21731;SDS011;11028;51.156;17.130;2022-08-19T14:58:42;9.23;;;4.32;;
21731;SDS011;11028;51.156;17.130;2022-08-19T15:06:00;12.68;;;4.90;;
21731;SDS011;11028;51.156;17.130;2022-08-19T15:13:19;9.00;;;6.05;;
21731;SDS011;11028;51.156;17.130;2022-08-19T15:20:36;8.45;;;4.53;;
21731;SDS011;11028;51.156;17.130;2022-08-19T15:27:54;8.30;;;5.18;;
21731;SDS011;11028;51.156;17.130;2022-08-19T15:35:19;8.27;;;6.55;;
21731;SDS011;11028;51.156;17.130;2022-08-19T15:42:37;20.38;;;14.20;;
21731;SDS011;11028;51.156;17.130;2022-08-19T15:49:56;17.35;;;9.90;;
21731;SDS011;11028;51.156;17.130;2022-08-19T15:57:15;13.50;;;10.75;;
21731;SDS011;11028;51.156;17.130;2022-08-19T16:04:50;14.95;;;11.68;;
21731;SDS011;11028;51.156;17.130;2022-08-19T16:12:26;19.88;;;14.13;;
21731;SDS011;11028;51.156;17.130;2022-08-19T16:19:44;21.63;;;15.02;;
21731;SDS011;11028;51.156;17.130;2022-08-19T16:27:01;20.67;;;15.25;;
21731;SDS011;11028;51.156;17.130;2022-08-19T16:34:19;18.73;;;15.45;;
21731;SDS011;11028;51.156;17.130;2022-08-19T16:41:37;23.10;;;17.20;;
21731;SDS011;11028;51.156;17.130;2022-08-19T16:48:54;19.35;;;16.02;;
21731;SDS011;11028;51.156;17.130;2022-08-19T16:56:12;24.40;;;17.75;;
21731;SDS011;11028;51.156;17.130;2022-08-19T17:03:30;24.75;;;19.02;;
21731;SDS011;11028;51.156;17.130;2022-08-19T17:10:48;27.85;;;17.90;;
21731;SDS011;11028;51.156;17.130;2022-08-19T17:18:06;22.85;;;16.80;;
21731;SDS011;11028;51.156;17.130;2022-08-19T17:25:25;22.88;;;18.40;;
21731;SDS011;11028;51.156;17.130;2022-08-19T17:32:43;26.10;;;19.05;;
21731;SDS011;11028;51.156;17.130;2022-08-19T17:40:02;30.70;;;23.65;;
21731;SDS011;11028;51.156;17.130;2022-08-19T17:47:20;30.30;;;19.80;;
21731;SDS011;11028;51.156;17.130;2022-08-19T17:54:37;24.25;;;17.77;;
21731;SDS011;11028;51.156;17.130;2022-08-19T18:01:55;24.13;;;18.40;;
21731;SDS011;11028;51.156;17.130;2022-08-19T18:09:15;24.75;;;19.00;;
21731;SDS011;11028;51.156;17.130;2022-08-19T18:16:32;24.73;;;19.88;;
21731;SDS011;11028;51.156;17.130;2022-08-19T18:23:50;31.38;;;20.00;;
21731;SDS011;11028;51.156;17.130;2022-08-19T18:31:08;25.42;;;19.52;;
21731;SDS011;11028;51.156;17.130;2022-08-19T18:38:25;31.75;;;19.52;;
21731;SDS011;11028;51.156;17.130;2022-08-19T18:46:00;23.58;;;19.42;;
21731;SDS011;11028;51.156;17.130;2022-08-19T18:53:36;24.05;;;19.13;;
21731;SDS011;11028;51.156;17.130;2022-08-19T19:00:55;26.45;;;19.30;;
21731;SDS011;11028;51.156;17.130;2022-08-19T19:08:14;28.63;;;18.88;;
21731;SDS011;11028;51.156;17.130;2022-08-19T19:15:34;26.23;;;18.87;;
21731;SDS011;11028;51.156;17.130;2022-08-19T19:22:54;33.13;;;19.73;;
21731;SDS011;11028;51.156;17.130;2022-08-19T19:30:12;25.00;;;18.75;;
21731;SDS011;11028;51.156;17.130;2022-08-19T19:37:29;24.85;;;17.95;;
21731;SDS011;11028;51.156;17.130;2022-08-19T19:44:47;76.50;;;48.85;;
21731;SDS011;11028;51.156;17.130;2022-08-19T19:52:06;19.35;;;13.75;;
21731;SDS011;11028;51.156;17.130;2022-08-19T19:59:23;16.15;;;10.68;;
21731;SDS011;11028;51.156;17.130;2022-08-19T20:06:40;12.85;;;9.13;;
21731;SDS011;11028;51.156;17.130;2022-08-19T20:14:00;21.92;;;10.27;;
21731;SDS011;11028;51.156;17.130;2022-08-19T20:21:19;16.90;;;10.23;;
21731;SDS011;11028;51.156;17.130;2022-08-19T20:28:37;17.25;;;9.90;;
21731;SDS011;11028;51.156;17.130;2022-08-19T20:35:56;22.48;;;10.00;;
21731;SDS011;11028;51.156;17.130;2022-08-19T20:43:13;17.13;;;10.85;;
21731;SDS011;11028;51.156;17.130;2022-08-19T20:50:31;13.95;;;9.85;;
21731;SDS011;11028;51.156;17.130;2022-08-19T20:57:50;23.23;;;11.07;;
21731;SDS011;11028;51.156;17.130;2022-08-19T21:05:07;21.10;;;13.38;;
21731;SDS011;11028;51.156;17.130;2022-08-19T21:12:24;20.50;;;12.60;;
21731;SDS011;11028;51.156;17.130;2022-08-19T21:19:42;18.30;;;10.85;;
21731;SDS011;11028;51.156;17.130;2022-08-19T21:27:00;20.33;;;10.50;;
21731;SDS011;11028;51.156;17.130;2022-08-19T21:34:17;18.40;;;10.07;;
21731;SDS011;11028;51.156;17.130;2022-08-19T21:41:36;17.60;;;11.25;;
21731;SDS011;11028;51.156;17.130;2022-08-19T21:48:53;19.58;;;10.40;;
21731;SDS011;11028;51.156;17.130;2022-08-19T21:56:12;18.63;;;10.25;;
21731;SDS011;11028;51.156;17.130;2022-08-19T22:03:31;20.75;;;10.20;;
21731;SDS011;11028;51.156;17.130;2022-08-19T22:10:47;19.63;;;10.27;;
21731;SDS011;11028;51.156;17.130;2022-08-19T22:18:05;14.00;;;9.05;;
21731;SDS011;11028;51.156;17.130;2022-08-19T22:25:25;16.92;;;9.30;;
21731;SDS011;11028;51.156;17.130;2022-08-19T22:32:44;16.20;;;8.82;;
21731;SDS011;11028;51.156;17.130;2022-08-19T22:40:02;18.70;;;9.00;;
21731;SDS011;11028;51.156;17.130;2022-08-19T22:47:21;15.60;;;8.68;;
21731;SDS011;11028;51.156;17.130;2022-08-19T22:54:39;15.88;;;8.90;;
21731;SDS011;11028;51.156;17.130;2022-08-19T23:01:56;15.32;;;8.75;;
21731;SDS011;11028;51.156;17.130;2022-08-19T23:09:14;23.95;;;14.15;;
21731;SDS011;11028;51.156;17.130;2022-08-19T23:16:32;18.45;;;11.30;;
21731;SDS011;11028;51.156;17.130;2022-08-19T23:23:51;17.58;;;10.77;;
21731;SDS011;11028;51.156;17.130;2022-08-19T23:31:09;14.85;;;9.55;;
21731;SDS011;11028;51.156;17.130;2022-08-19T23:38:26;18.98;;;10.65;;
21731;SDS011;11028;51.156;17.130;2022-08-19T23:45:44;17.25;;;10.02;;
21731;SDS011;11028;51.156;17.130;2022-08-19T23:53:03;21.08;;;11.10;;
